CFN7 weather

Sundre Airport
Sundre, Alberta, Canada

Public forecast

Using degrees Celsius for public forecast. Weather courtesy of forecast.io.

METAR (pilot weather report)

Closest report is Red Deer Regional Airport, 37.9 nm (70.2 km) NE. Retrieved 2019/09/23 06:00 UTC (37 minutes ago):

CYQF 230600Z 20003KT 15SM OVC140 12/05 A2962 RMK AC8 SLP034 DENSITY ALT 3700FT

TAF (pilot weather forecast)

Closest forecast is Red Deer Regional Airport, 37.9 nm (70.2 km) NE. Retrieved 2019/09/23 06:42 UTC (0 seconds ago):

TAF TAF CYQF 230538Z 2306/2318 VRB03KT P6SM OVC140 BECMG 2306/2308 33010G20KT FM230800 33010G20KT P6SM BKN050 OVC080 TEMPO 2308/2314 P6SM -SHRA BKN030 OVC050 FM231400 22007KT P6SM SKC RMK NXT FCST BY 231200Z